createdAt,value
2023-05-23T00:02:13.298Z,6.13
2023-05-23T00:03:47.299Z,6.65
2023-05-23T00:05:20.808Z,6.00
2023-05-23T00:06:53.475Z,6.82
2023-05-23T00:08:27.041Z,7.50
2023-05-23T00:09:59.281Z,6.55
2023-05-23T00:11:32.436Z,6.68
2023-05-23T00:13:09.291Z,7.00
2023-05-23T00:14:43.745Z,7.07
2023-05-23T00:16:17.211Z,6.55
2023-05-23T00:17:49.465Z,7.53
2023-05-23T00:19:22.736Z,6.20
2023-05-23T00:20:57.385Z,7.53
2023-05-23T00:22:29.747Z,8.38
2023-05-23T00:24:04.552Z,7.68
2023-05-23T00:25:37.806Z,7.28
2023-05-23T00:27:11.613Z,8.20
2023-05-23T00:28:43.990Z,9.00
2023-05-23T00:30:18.726Z,8.63
2023-05-23T00:31:51.910Z,6.95
2023-05-23T00:33:25.620Z,8.40
2023-05-23T00:34:58.811Z,8.40
2023-05-23T00:36:36.829Z,8.07
2023-05-23T00:38:11.419Z,7.68
2023-05-23T00:39:44.629Z,7.38
2023-05-23T00:41:19.550Z,7.10
2023-05-23T00:42:52.227Z,8.07
2023-05-23T00:44:25.567Z,8.23
2023-05-23T00:46:01.395Z,8.65
2023-05-23T00:47:34.075Z,7.45
2023-05-23T00:49:07.528Z,6.43
2023-05-23T00:50:40.130Z,6.90
2023-05-23T00:52:13.448Z,7.38
2023-05-23T00:53:46.674Z,7.80
2023-05-23T00:55:19.849Z,8.38
2023-05-23T00:56:54.565Z,9.20
2023-05-23T00:58:27.805Z,8.20
2023-05-23T01:00:01.651Z,8.25
2023-05-23T01:01:37.827Z,8.05
2023-05-23T01:03:17.822Z,7.63
2023-05-23T01:04:54.329Z,7.32
2023-05-23T01:06:30.626Z,8.88
2023-05-23T01:08:03.832Z,8.50
2023-05-23T01:09:37.796Z,6.82
2023-05-23T01:11:36.205Z,6.95
2023-05-23T01:13:22.943Z,7.72
2023-05-23T01:15:06.404Z,7.75
2023-05-23T01:16:53.790Z,8.27
2023-05-23T01:18:38.260Z,9.27
2023-05-23T01:20:14.173Z,8.45
2023-05-23T01:21:55.010Z,8.48
2023-05-23T01:23:59.184Z,8.02
2023-05-23T01:25:50.210Z,7.90
2023-05-23T01:27:39.930Z,6.80
2023-05-23T01:29:20.090Z,6.93
2023-05-23T01:30:57.717Z,6.40
2023-05-23T01:32:33.436Z,6.97
2023-05-23T01:34:09.033Z,6.18
2023-05-23T01:35:44.228Z,5.93
2023-05-23T01:37:19.557Z,6.30
2023-05-23T01:38:51.903Z,5.07
2023-05-23T01:40:26.728Z,5.45
2023-05-23T01:43:34.332Z,5.43
2023-05-23T01:45:10.057Z,5.00
2023-05-23T01:46:44.825Z,3.75
2023-05-23T01:49:52.956Z,3.35
2023-05-23T01:51:27.079Z,4.18
2023-05-23T01:53:01.592Z,3.95
2023-05-23T01:54:35.308Z,3.58
2023-05-23T01:56:09.395Z,4.30
2023-05-23T01:57:42.282Z,4.72
2023-05-23T01:59:17.255Z,3.80
2023-05-23T02:00:49.841Z,4.18
2023-05-23T02:02:23.504Z,3.50
2023-05-23T02:04:00.684Z,5.43
2023-05-23T02:05:33.976Z,3.83
2023-05-23T02:07:08.308Z,4.30
2023-05-23T02:08:40.678Z,4.32
2023-05-23T02:10:14.015Z,3.92
2023-05-23T02:11:47.400Z,3.90
2023-05-23T02:13:20.541Z,4.50
2023-05-23T02:14:55.671Z,3.92
2023-05-23T02:16:27.873Z,3.95
2023-05-23T02:18:02.065Z,4.72
2023-05-23T02:19:35.343Z,5.45
2023-05-23T02:21:08.606Z,4.75
2023-05-23T02:22:43.911Z,4.85
2023-05-23T02:24:17.072Z,3.63
2023-05-23T02:25:51.702Z,4.20
2023-05-23T02:27:25.306Z,3.92
2023-05-23T02:28:57.832Z,3.47
2023-05-23T02:30:32.644Z,3.80
2023-05-23T02:32:05.528Z,3.85
2023-05-23T02:33:38.716Z,3.20
2023-05-23T02:35:12.916Z,5.28
2023-05-23T02:36:46.132Z,3.85
2023-05-23T02:38:20.761Z,3.80
2023-05-23T02:39:53.050Z,3.92
2023-05-23T02:41:26.922Z,4.70
2023-05-23T02:43:00.053Z,4.20
2023-05-23T02:44:33.163Z,3.35
2023-05-23T02:46:06.813Z,4.00
2023-05-23T02:47:40.022Z,5.20
2023-05-23T02:49:15.250Z,5.05
2023-05-23T02:50:47.764Z,3.45
2023-05-23T02:52:21.033Z,3.92
2023-05-23T02:53:54.222Z,4.43
2023-05-23T02:55:31.972Z,5.15
2023-05-23T02:57:06.415Z,4.10
2023-05-23T02:58:42.929Z,5.97
2023-05-23T03:00:16.768Z,6.57
2023-05-23T03:01:56.244Z,5.65
2023-05-23T03:03:31.537Z,5.10
2023-05-23T03:05:07.100Z,5.03
2023-05-23T03:06:42.254Z,5.88
2023-05-23T03:08:15.690Z,5.20
2023-05-23T03:09:48.003Z,5.43
2023-05-23T03:11:22.762Z,6.80
2023-05-23T03:14:29.267Z,5.07
2023-05-23T03:16:03.075Z,5.03
2023-05-23T03:17:37.863Z,5.53
2023-05-23T03:20:44.638Z,5.35
2023-05-23T03:22:17.105Z,5.93
2023-05-23T03:23:50.532Z,5.45
2023-05-23T03:25:23.795Z,7.53
2023-05-23T03:26:56.286Z,5.72
2023-05-23T03:28:30.239Z,6.13
2023-05-23T03:30:04.367Z,5.05
2023-05-23T03:31:38.056Z,5.82
2023-05-23T03:33:13.065Z,6.22
2023-05-23T03:34:46.428Z,5.72
2023-05-23T03:36:19.730Z,6.40
2023-05-23T03:37:53.010Z,6.40
2023-05-23T03:39:25.485Z,6.20
2023-05-23T03:40:58.912Z,6.63
2023-05-23T03:42:32.410Z,7.13
2023-05-23T03:44:05.688Z,7.03
2023-05-23T03:45:39.297Z,5.55
2023-05-23T03:47:18.466Z,7.03
2023-05-23T03:48:52.248Z,6.25
2023-05-23T03:50:26.022Z,5.90
2023-05-23T03:51:59.370Z,6.57
2023-05-23T03:53:34.381Z,6.13
2023-05-23T03:55:11.422Z,6.50
2023-05-23T03:56:45.232Z,7.35
2023-05-23T03:58:18.580Z,5.90
2023-05-23T03:59:56.393Z,7.53
2023-05-23T04:01:29.852Z,6.32
2023-05-23T04:03:03.536Z,6.03
2023-05-23T04:04:39.728Z,6.18
2023-05-23T04:06:14.393Z,6.15
2023-05-23T04:07:51.652Z,8.35
2023-05-23T04:09:24.681Z,6.90
2023-05-23T04:10:58.287Z,6.07
2023-05-23T04:12:32.639Z,6.35
2023-05-23T04:14:06.251Z,7.80
2023-05-23T04:15:39.949Z,6.60
2023-05-23T04:17:16.507Z,6.75
2023-05-23T04:18:50.254Z,7.78
2023-05-23T04:20:25.273Z,5.18
2023-05-23T04:21:58.496Z,7.00
2023-05-23T04:23:32.150Z,7.75
2023-05-23T04:25:07.252Z,6.70
2023-05-23T04:26:45.390Z,7.38
2023-05-23T04:28:18.805Z,6.80
2023-05-23T04:29:52.467Z,6.65
2023-05-23T04:31:26.911Z,6.65
2023-05-23T04:33:00.928Z,7.20
2023-05-23T04:34:35.636Z,8.10
2023-05-23T04:36:10.949Z,9.02
2023-05-23T04:37:46.956Z,7.35
2023-05-23T04:39:20.309Z,9.00
2023-05-23T04:41:16.194Z,7.05
2023-05-23T04:43:10.172Z,7.38
2023-05-23T04:45:11.331Z,7.28
2023-05-23T04:46:58.988Z,7.68
2023-05-23T04:48:39.019Z,7.05
2023-05-23T04:50:12.759Z,6.03
2023-05-23T04:51:47.209Z,6.50
2023-05-23T04:53:27.249Z,8.60
2023-05-23T04:55:01.839Z,6.93
2023-05-23T04:56:35.427Z,6.68
2023-05-23T04:58:08.626Z,8.32
2023-05-23T04:59:43.066Z,6.10
2023-05-23T05:01:16.845Z,5.60
2023-05-23T05:02:50.101Z,6.03
2023-05-23T05:04:23.905Z,5.15
2023-05-23T05:05:57.832Z,12.02
2023-05-23T05:07:32.376Z,5.55
2023-05-23T05:09:07.967Z,5.03
2023-05-23T05:10:42.337Z,6.20
2023-05-23T05:12:17.042Z,6.97
2023-05-23T05:13:50.294Z,5.70
2023-05-23T05:15:23.617Z,5.15
2023-05-23T05:17:02.639Z,5.03
2023-05-23T05:18:42.748Z,6.45
2023-05-23T05:20:16.804Z,5.80
2023-05-23T05:21:50.042Z,4.93
2023-05-23T05:23:29.374Z,7.28
2023-05-23T05:25:03.490Z,6.93
2023-05-23T05:26:37.520Z,5.85
2023-05-23T05:28:11.502Z,4.28
2023-05-23T05:29:50.032Z,5.88
2023-05-23T05:31:23.527Z,6.82
2023-05-23T05:32:58.041Z,5.85
2023-05-23T05:34:31.375Z,5.55
2023-05-23T05:36:07.177Z,7.03
2023-05-23T05:37:40.369Z,6.32
2023-05-23T05:39:15.951Z,6.70
2023-05-23T05:40:49.181Z,7.05
2023-05-23T05:42:23.527Z,5.47
2023-05-23T05:43:56.960Z,7.85
2023-05-23T05:45:30.110Z,6.65
2023-05-23T05:47:03.607Z,5.57
2023-05-23T05:48:37.392Z,9.73
2023-05-23T05:50:14.039Z,5.47
2023-05-23T05:51:47.222Z,7.25
2023-05-23T05:53:20.400Z,7.50
2023-05-23T05:54:57.617Z,8.38
2023-05-23T05:56:30.850Z,7.65
2023-05-23T05:58:04.722Z,8.23
2023-05-23T05:59:49.005Z,6.40
2023-05-23T06:01:22.307Z,7.05
2023-05-23T06:02:57.487Z,5.53
2023-05-23T06:04:53.380Z,7.40
2023-05-23T06:06:26.788Z,9.18
2023-05-23T06:08:00.274Z,10.60
2023-05-23T06:09:33.731Z,8.63
2023-05-23T06:11:08.594Z,8.52
2023-05-23T06:12:41.916Z,9.00
2023-05-23T06:14:15.056Z,7.13
2023-05-23T06:15:51.840Z,8.35
2023-05-23T06:17:25.828Z,7.03
2023-05-23T06:18:59.048Z,7.38
2023-05-23T06:20:35.064Z,7.30
2023-05-23T06:22:11.371Z,8.10
2023-05-23T06:23:44.700Z,9.95
2023-05-23T06:25:18.130Z,6.60
2023-05-23T06:26:54.768Z,9.25
2023-05-23T06:28:27.905Z,6.60
2023-05-23T06:30:01.093Z,7.10
2023-05-23T06:31:35.944Z,9.65
2023-05-23T06:33:09.258Z,8.38
2023-05-23T06:34:42.538Z,10.00
2023-05-23T06:36:16.285Z,8.88
2023-05-23T06:37:49.536Z,8.15
2023-05-23T06:39:22.651Z,9.20
2023-05-23T06:40:56.017Z,7.43
2023-05-23T06:42:30.824Z,8.13
2023-05-23T06:44:16.791Z,6.63
2023-05-23T06:45:50.196Z,6.53
2023-05-23T06:47:23.755Z,7.40
2023-05-23T06:49:10.731Z,7.45
2023-05-23T06:50:48.053Z,8.57
2023-05-23T06:52:21.631Z,9.40
2023-05-23T06:53:56.457Z,7.43
2023-05-23T06:57:04.593Z,7.13
2023-05-23T06:58:39.771Z,7.57
2023-05-23T07:00:14.893Z,7.97
2023-05-23T07:02:01.477Z,7.90
2023-05-23T07:03:35.202Z,8.88
2023-05-23T07:05:12.112Z,8.15
2023-05-23T07:06:54.353Z,7.50
2023-05-23T07:08:28.046Z,7.65
2023-05-23T07:10:09.976Z,7.35
2023-05-23T07:11:43.180Z,7.00
2023-05-23T07:13:16.943Z,10.68
2023-05-23T07:14:51.754Z,7.40
2023-05-23T07:16:26.535Z,7.38
2023-05-23T07:18:07.358Z,5.88
2023-05-23T07:19:41.276Z,7.05
2023-05-23T07:21:14.445Z,6.55
2023-05-23T07:22:47.647Z,10.85
2023-05-23T07:24:23.844Z,10.68
2023-05-23T07:26:02.463Z,7.65
2023-05-23T07:28:02.711Z,7.88
2023-05-23T07:29:35.917Z,7.18
2023-05-23T07:31:10.529Z,9.15
2023-05-23T07:32:44.887Z,8.15
2023-05-23T07:34:20.839Z,7.43
2023-05-23T07:36:11.960Z,7.40
2023-05-23T07:37:45.432Z,7.72
2023-05-23T07:39:24.121Z,7.03
2023-05-23T07:41:09.906Z,6.93
2023-05-23T07:42:44.650Z,6.88
2023-05-23T07:44:20.726Z,8.57
2023-05-23T07:45:55.669Z,9.30
2023-05-23T07:47:30.419Z,8.30
2023-05-23T07:49:03.846Z,6.10
2023-05-23T07:50:37.201Z,10.73
2023-05-23T07:52:12.482Z,17.20
2023-05-23T07:53:45.752Z,9.63
2023-05-23T07:55:19.701Z,10.63
2023-05-23T07:56:54.038Z,8.73
2023-05-23T07:58:27.269Z,8.45
2023-05-23T08:00:00.480Z,10.52
2023-05-23T08:01:36.552Z,13.57
2023-05-23T08:03:13.599Z,13.27
2023-05-23T08:04:59.661Z,12.77
2023-05-23T08:06:33.566Z,16.52
2023-05-23T08:08:11.174Z,11.27
2023-05-23T08:10:03.274Z,11.93
2023-05-23T08:11:55.327Z,9.95
2023-05-23T08:13:30.058Z,9.57
2023-05-23T08:15:38.404Z,6.78
2023-05-23T08:17:21.792Z,9.98
2023-05-23T08:18:56.450Z,10.20
2023-05-23T08:20:33.376Z,10.18
2023-05-23T08:22:06.882Z,12.68
2023-05-23T08:23:40.108Z,7.85
2023-05-23T08:25:13.399Z,8.02
2023-05-23T08:26:47.626Z,11.18
2023-05-23T08:28:22.078Z,11.27
2023-05-23T08:30:00.085Z,7.85
2023-05-23T08:31:36.616Z,10.43
2023-05-23T08:33:11.332Z,9.80
2023-05-23T08:36:20.292Z,5.88
2023-05-23T08:37:58.160Z,4.97
2023-05-23T08:39:32.095Z,5.38
2023-05-23T08:41:24.825Z,4.95
2023-05-23T08:43:04.050Z,6.13
2023-05-23T08:44:37.987Z,5.25
2023-05-23T08:46:13.432Z,7.20
2023-05-23T08:47:48.276Z,8.18
2023-05-23T08:49:24.360Z,7.57
2023-05-23T08:51:00.895Z,7.97
2023-05-23T08:52:38.139Z,9.55
2023-05-23T08:54:13.117Z,7.60
2023-05-23T08:55:47.445Z,7.45
2023-05-23T08:57:20.981Z,7.38
2023-05-23T08:58:59.937Z,7.85
2023-05-23T09:00:35.458Z,7.57
2023-05-23T09:02:13.046Z,7.10
2023-05-23T09:03:46.458Z,9.50
2023-05-23T09:05:30.767Z,10.82
2023-05-23T09:07:06.501Z,9.60
2023-05-23T09:08:40.113Z,9.25
2023-05-23T09:10:17.001Z,9.48
2023-05-23T09:11:52.328Z,8.82
2023-05-23T09:13:25.808Z,9.30
2023-05-23T09:15:00.402Z,9.52
2023-05-23T09:16:35.781Z,10.95
2023-05-23T09:18:14.990Z,11.60
2023-05-23T09:19:48.886Z,9.05
2023-05-23T09:21:33.716Z,12.32
2023-05-23T09:23:14.188Z,9.43
2023-05-23T09:24:47.735Z,11.60
2023-05-23T09:26:22.167Z,10.52
2023-05-23T09:27:56.635Z,10.18
2023-05-23T09:29:31.506Z,8.77
2023-05-23T09:31:07.579Z,9.27
2023-05-23T09:32:42.502Z,9.32
2023-05-23T09:35:48.940Z,9.50
2023-05-23T09:37:24.417Z,9.68
2023-05-23T09:39:03.774Z,9.27
2023-05-23T09:40:36.988Z,10.68
2023-05-23T09:42:10.923Z,9.18
2023-05-23T09:43:52.235Z,8.30
2023-05-23T09:45:31.906Z,9.95
2023-05-23T09:47:08.452Z,9.27
2023-05-23T09:50:15.134Z,9.18
2023-05-23T09:51:59.474Z,9.35
2023-05-23T09:53:32.829Z,11.15
2023-05-23T09:55:09.417Z,8.88
2023-05-23T09:56:44.970Z,8.98
2023-05-23T09:58:20.630Z,10.35
2023-05-23T09:59:55.301Z,10.60
2023-05-23T10:01:31.353Z,8.98
2023-05-23T10:03:12.796Z,10.63
2023-05-23T10:04:46.542Z,10.57
2023-05-23T10:06:27.763Z,11.38
2023-05-23T10:08:03.577Z,12.48
2023-05-23T10:09:41.532Z,14.60
2023-05-23T10:12:11.173Z,10.65
2023-05-23T10:13:49.588Z,9.48
2023-05-23T10:15:27.360Z,9.13
2023-05-23T10:17:10.440Z,7.95
2023-05-23T10:18:46.742Z,9.38
2023-05-23T10:20:29.426Z,8.38
2023-05-23T10:22:07.381Z,9.00
2023-05-23T10:23:41.929Z,8.65
2023-05-23T10:25:16.008Z,10.23
2023-05-23T10:26:50.159Z,8.63
2023-05-23T10:28:24.582Z,11.23
2023-05-23T10:30:00.353Z,12.40
2023-05-23T10:31:34.467Z,7.78
2023-05-23T10:33:09.534Z,10.40
2023-05-23T10:34:55.152Z,10.77
2023-05-23T10:36:38.633Z,9.82
2023-05-23T10:38:27.348Z,8.93
2023-05-23T10:40:08.775Z,10.15
2023-05-23T10:41:50.077Z,9.80
2023-05-23T10:43:32.100Z,8.90
2023-05-23T10:45:21.593Z,8.68
2023-05-23T10:46:58.371Z,8.95
2023-05-23T10:48:36.910Z,9.10
2023-05-23T10:50:14.737Z,9.63
2023-05-23T10:51:51.490Z,9.90
2023-05-23T10:53:24.866Z,10.30
2023-05-23T10:54:57.991Z,7.03
2023-05-23T10:56:33.184Z,6.70
2023-05-23T10:58:16.785Z,7.53
2023-05-23T10:59:52.402Z,6.65
2023-05-23T11:01:28.569Z,7.97
2023-05-23T11:03:02.543Z,5.70
2023-05-23T11:04:36.118Z,6.95
2023-05-23T11:06:32.726Z,7.45
2023-05-23T11:08:10.988Z,6.25
2023-05-23T11:10:06.094Z,7.13
2023-05-23T11:12:05.050Z,5.70
2023-05-23T11:14:01.046Z,6.90
2023-05-23T11:15:45.669Z,6.78
2023-05-23T11:17:32.537Z,7.82
2023-05-23T11:19:27.844Z,8.60
2023-05-23T11:21:04.108Z,9.20
2023-05-23T11:22:37.896Z,8.00
2023-05-23T11:24:11.570Z,6.13
2023-05-23T11:25:48.728Z,11.38
2023-05-23T11:27:29.252Z,7.72
2023-05-23T11:30:38.312Z,7.80
2023-05-23T11:32:17.288Z,7.10
2023-05-23T11:33:53.634Z,6.95
2023-05-23T11:35:27.699Z,5.40
2023-05-23T11:37:01.714Z,7.32
2023-05-23T11:38:35.575Z,6.28
2023-05-23T11:40:30.008Z,5.28
2023-05-23T11:42:04.538Z,6.03
2023-05-23T11:43:37.748Z,8.00
2023-05-23T11:45:11.417Z,6.00
2023-05-23T11:47:01.952Z,7.32
2023-05-23T11:48:35.138Z,7.90
2023-05-23T11:50:11.628Z,6.80
2023-05-23T11:51:44.989Z,6.85
2023-05-23T11:53:21.477Z,7.28
2023-05-23T11:54:56.478Z,9.50
2023-05-23T11:56:31.389Z,5.40
2023-05-23T11:58:04.617Z,8.45
2023-05-23T11:59:38.999Z,7.95
2023-05-23T12:01:14.485Z,7.43
2023-05-23T12:02:48.993Z,6.03
2023-05-23T12:04:23.106Z,7.07
2023-05-23T12:05:58.588Z,6.53
2023-05-23T12:07:36.722Z,7.13
2023-05-23T12:09:12.896Z,6.35
2023-05-23T12:10:54.685Z,5.70
2023-05-23T12:12:29.471Z,6.90
2023-05-23T12:14:06.375Z,9.13
2023-05-23T12:15:40.975Z,8.63
2023-05-23T12:17:14.725Z,6.30
2023-05-23T12:18:48.525Z,10.45
2023-05-23T12:20:22.343Z,7.63
2023-05-23T12:21:57.013Z,7.15
2023-05-23T12:23:33.112Z,6.40
2023-05-23T12:25:11.100Z,7.57
2023-05-23T12:26:55.317Z,6.60
2023-05-23T12:28:38.306Z,8.95
2023-05-23T12:30:16.060Z,6.72
2023-05-23T12:31:53.352Z,7.38
2023-05-23T12:33:26.775Z,7.18
2023-05-23T12:35:00.221Z,5.78
2023-05-23T12:36:35.166Z,7.00
2023-05-23T12:38:18.201Z,5.47
2023-05-23T12:39:51.472Z,7.22
2023-05-23T12:41:24.632Z,5.82
2023-05-23T12:42:58.613Z,5.82
2023-05-23T12:44:32.008Z,6.75
2023-05-23T12:46:07.899Z,5.70
2023-05-23T12:47:41.050Z,4.88
2023-05-23T12:49:14.258Z,5.75
2023-05-23T12:50:47.600Z,6.00
2023-05-23T12:52:20.994Z,5.10
2023-05-23T12:53:56.550Z,5.43
2023-05-23T12:55:29.738Z,5.85
2023-05-23T12:57:02.906Z,5.50
2023-05-23T12:58:36.028Z,7.57
2023-05-23T13:00:11.709Z,5.85
2023-05-23T13:01:44.996Z,5.25
2023-05-23T13:03:18.450Z,6.03
2023-05-23T13:04:51.658Z,4.65
2023-05-23T13:06:24.838Z,6.38
2023-05-23T13:07:59.704Z,5.50
2023-05-23T13:09:34.232Z,4.88
2023-05-23T13:11:07.370Z,5.93
2023-05-23T13:12:40.719Z,5.13
2023-05-23T13:14:14.071Z,6.30
2023-05-23T13:15:48.280Z,3.88
2023-05-23T13:17:23.813Z,5.13
2023-05-23T13:18:57.270Z,6.25
2023-05-23T13:20:30.883Z,5.30
2023-05-23T13:22:04.495Z,7.00
2023-05-23T13:23:39.129Z,4.05
2023-05-23T13:25:14.087Z,5.43
2023-05-23T13:26:47.252Z,4.07
2023-05-23T13:28:20.537Z,4.22
2023-05-23T13:29:53.908Z,5.88
2023-05-23T13:31:27.498Z,6.22
2023-05-23T13:33:02.410Z,5.18
2023-05-23T13:34:37.419Z,6.65
2023-05-23T13:36:10.687Z,5.90
2023-05-23T13:37:44.165Z,4.80
2023-05-23T13:39:19.713Z,5.38
2023-05-23T13:41:04.059Z,6.38
2023-05-23T13:42:37.300Z,4.47
2023-05-23T13:44:10.502Z,17.55
2023-05-23T13:45:43.642Z,3.85
2023-05-23T13:47:17.248Z,5.63
2023-05-23T13:48:50.603Z,8.90
2023-05-23T13:50:23.857Z,4.47
2023-05-23T13:51:57.092Z,3.90
2023-05-23T13:53:30.283Z,5.40
2023-05-23T13:55:04.545Z,5.35
2023-05-23T13:56:40.319Z,6.40
2023-05-23T13:58:13.927Z,4.72
2023-05-23T13:59:47.114Z,7.47
2023-05-23T14:01:20.321Z,6.25
2023-05-23T14:02:53.533Z,5.25
2023-05-23T14:04:26.937Z,6.53
2023-05-23T14:06:00.044Z,7.30
2023-05-23T14:07:33.427Z,8.07
2023-05-23T14:09:07.715Z,4.45
2023-05-23T14:10:41.273Z,5.18
2023-05-23T14:12:16.209Z,7.88
2023-05-23T14:15:22.569Z,5.97
2023-05-23T14:16:55.812Z,6.03
2023-05-23T14:18:29.042Z,4.70
2023-05-23T14:20:02.297Z,7.15
2023-05-23T14:21:36.243Z,6.88
2023-05-23T14:23:09.491Z,6.15
2023-05-23T14:24:42.679Z,7.85
2023-05-23T14:26:16.180Z,4.60
2023-05-23T14:27:50.718Z,5.05
2023-05-23T14:29:23.832Z,5.50
2023-05-23T14:30:57.468Z,6.38
2023-05-23T14:32:33.254Z,5.15
2023-05-23T14:34:06.914Z,6.80
2023-05-23T14:35:40.488Z,6.07
2023-05-23T14:37:12.870Z,5.15
2023-05-23T14:38:46.501Z,7.60
2023-05-23T14:40:20.009Z,5.53
2023-05-23T14:41:53.292Z,6.95
2023-05-23T14:43:27.915Z,5.15
2023-05-23T14:45:01.226Z,3.92
2023-05-23T14:46:34.491Z,5.57
2023-05-23T14:48:08.024Z,5.10
2023-05-23T14:49:41.240Z,5.93
2023-05-23T14:51:24.107Z,5.30
2023-05-23T14:53:03.991Z,6.55
2023-05-23T14:54:37.094Z,4.95
2023-05-23T14:56:20.967Z,5.10
2023-05-23T14:57:54.520Z,7.80
2023-05-23T14:59:29.841Z,5.18
2023-05-23T15:01:04.692Z,4.38
2023-05-23T15:02:38.028Z,6.85
2023-05-23T15:04:11.418Z,5.78
2023-05-23T15:05:48.434Z,5.78
2023-05-23T15:07:22.364Z,6.57
2023-05-23T15:08:56.694Z,5.35
2023-05-23T15:10:29.825Z,6.22
2023-05-23T15:12:05.165Z,3.90
2023-05-23T15:13:38.297Z,7.03
2023-05-23T15:15:13.357Z,6.72
2023-05-23T15:16:48.779Z,8.52
2023-05-23T15:18:39.038Z,5.82
2023-05-23T15:20:13.774Z,5.72
2023-05-23T15:21:51.069Z,6.22
2023-05-23T15:23:24.838Z,7.13
2023-05-23T15:25:01.535Z,5.72
2023-05-23T15:26:35.052Z,5.40
2023-05-23T15:28:08.216Z,6.43
2023-05-23T15:29:41.478Z,5.55
2023-05-23T15:31:16.251Z,6.60
2023-05-23T15:34:23.383Z,4.25
2023-05-23T15:35:58.773Z,6.18
2023-05-23T15:37:31.926Z,7.47
2023-05-23T15:39:06.063Z,5.05
2023-05-23T15:40:39.459Z,7.28
2023-05-23T15:42:12.766Z,6.68
2023-05-23T15:43:46.029Z,4.53
2023-05-23T15:45:19.262Z,6.35
2023-05-23T15:46:53.900Z,6.32
2023-05-23T15:50:00.412Z,5.13
2023-05-23T15:51:33.790Z,6.72
2023-05-23T15:53:06.999Z,6.05
2023-05-23T15:54:40.428Z,5.13
2023-05-23T15:56:15.627Z,4.65
2023-05-23T15:57:48.820Z,4.80
2023-05-23T15:59:22.062Z,6.05
2023-05-23T16:00:55.290Z,4.25
2023-05-23T16:02:29.977Z,4.88
2023-05-23T16:05:36.259Z,5.93
2023-05-23T16:07:09.460Z,7.00
2023-05-23T16:08:42.663Z,7.10
2023-05-23T16:10:15.932Z,8.80
2023-05-23T16:11:49.174Z,4.00
2023-05-23T16:13:22.372Z,4.63
2023-05-23T16:14:55.733Z,4.57
2023-05-23T16:16:28.987Z,7.65
2023-05-23T16:18:04.080Z,6.05
2023-05-23T16:19:37.282Z,6.43
2023-05-23T16:21:10.428Z,5.72
2023-05-23T16:22:43.540Z,3.90
2023-05-23T16:24:17.020Z,6.68
2023-05-23T16:25:50.326Z,7.88
2023-05-23T16:27:23.812Z,4.47
2023-05-23T16:28:56.962Z,4.85
2023-05-23T16:30:30.064Z,6.25
2023-05-23T16:32:03.311Z,4.57
2023-05-23T16:33:37.939Z,4.82
2023-05-23T16:35:11.917Z,6.18
2023-05-23T16:36:45.088Z,5.88
2023-05-23T16:38:18.317Z,7.70
2023-05-23T16:39:51.656Z,7.07
2023-05-23T16:41:25.137Z,4.38
2023-05-23T16:42:58.360Z,6.68
2023-05-23T16:44:31.563Z,7.65
2023-05-23T16:46:05.577Z,5.78
2023-05-23T16:47:38.779Z,4.65
2023-05-23T16:49:13.395Z,5.85
2023-05-23T16:50:46.535Z,5.40
2023-05-23T16:52:19.777Z,4.93
2023-05-23T16:53:53.065Z,3.83
2023-05-23T16:55:26.352Z,6.57
2023-05-23T16:57:01.697Z,5.90
2023-05-23T16:58:38.400Z,4.15
2023-05-23T17:00:13.472Z,4.40
2023-05-23T17:01:46.864Z,5.50
2023-05-23T17:03:21.329Z,7.18
2023-05-23T17:06:29.637Z,4.70
2023-05-23T17:08:03.150Z,5.40
2023-05-23T17:09:36.534Z,7.32
2023-05-23T17:11:09.702Z,4.93
2023-05-23T17:12:42.805Z,5.07
2023-05-23T17:14:16.104Z,5.45
2023-05-23T17:15:49.491Z,4.13
2023-05-23T17:17:22.735Z,5.28
2023-05-23T17:18:56.701Z,4.28
2023-05-23T17:20:31.235Z,5.00
2023-05-23T17:22:06.873Z,3.85
2023-05-23T17:23:40.807Z,5.03
2023-05-23T17:25:13.944Z,3.72
2023-05-23T17:26:47.259Z,5.72
2023-05-23T17:28:20.481Z,7.00
2023-05-23T17:29:53.691Z,4.30
2023-05-23T17:31:29.621Z,3.28
2023-05-23T17:33:03.944Z,5.15
2023-05-23T17:34:37.486Z,5.25
2023-05-23T17:36:12.682Z,3.60
2023-05-23T17:37:45.852Z,5.72
2023-05-23T17:39:19.304Z,5.95
2023-05-23T17:40:52.753Z,3.60
2023-05-23T17:42:26.259Z,5.32
2023-05-23T17:44:01.710Z,3.30
2023-05-23T17:45:36.031Z,5.20
2023-05-23T17:47:09.439Z,8.20
2023-05-23T17:48:47.805Z,4.97
2023-05-23T17:50:22.744Z,5.78
2023-05-23T17:51:57.628Z,3.67
2023-05-23T17:53:31.162Z,5.13
2023-05-23T17:55:04.770Z,5.53
2023-05-23T17:56:37.962Z,5.68
2023-05-23T17:58:11.153Z,4.03
2023-05-23T17:59:44.436Z,6.57
2023-05-23T18:01:18.036Z,6.97
2023-05-23T18:02:51.850Z,4.20
2023-05-23T18:04:25.727Z,5.75
2023-05-23T18:05:59.020Z,3.13
2023-05-23T18:07:33.558Z,4.25
2023-05-23T18:09:06.889Z,10.68
2023-05-23T18:10:44.347Z,3.38
2023-05-23T18:12:18.073Z,5.45
2023-05-23T18:13:51.534Z,3.85
2023-05-23T18:15:25.588Z,5.88
2023-05-23T18:16:58.828Z,3.10
2023-05-23T18:18:32.313Z,6.22
2023-05-23T18:20:07.402Z,4.78
2023-05-23T18:21:40.828Z,4.13
2023-05-23T18:23:15.573Z,4.80
2023-05-23T18:26:21.671Z,5.68
2023-05-23T18:27:56.022Z,4.82
2023-05-23T18:29:29.216Z,5.10
2023-05-23T18:31:04.384Z,8.80
2023-05-23T18:32:37.777Z,5.72
2023-05-23T18:34:11.116Z,8.15
2023-05-23T18:35:44.813Z,4.40
2023-05-23T18:37:18.573Z,6.18
2023-05-23T18:38:55.676Z,5.43
2023-05-23T18:40:29.407Z,6.32
2023-05-23T18:42:02.593Z,6.20
2023-05-23T18:43:36.577Z,6.60
2023-05-23T18:45:11.670Z,4.40
2023-05-23T18:46:44.912Z,4.05
2023-05-23T18:48:18.212Z,4.15
2023-05-23T18:49:52.239Z,5.47
2023-05-23T18:51:25.433Z,3.95
2023-05-23T18:52:58.916Z,7.07
2023-05-23T18:54:36.117Z,4.90
2023-05-23T18:56:09.539Z,4.13
2023-05-23T18:57:43.071Z,4.15
2023-05-23T18:59:16.885Z,5.30
2023-05-23T19:00:50.179Z,6.35
2023-05-23T19:02:23.373Z,3.35
2023-05-23T19:03:57.633Z,4.10
2023-05-23T19:05:31.311Z,6.07
2023-05-23T19:07:04.712Z,5.07
2023-05-23T19:08:37.994Z,5.30
2023-05-23T19:10:13.307Z,4.88
2023-05-23T19:11:46.816Z,4.20
2023-05-23T19:13:20.714Z,5.80
2023-05-23T19:14:54.447Z,3.92
2023-05-23T19:16:27.865Z,4.82
2023-05-23T19:18:01.405Z,5.63
2023-05-23T19:19:35.666Z,4.45
2023-05-23T19:21:10.053Z,5.55
2023-05-23T19:22:51.900Z,4.65
2023-05-23T19:24:26.283Z,5.25
2023-05-23T19:26:00.970Z,3.63
2023-05-23T19:27:34.144Z,4.55
2023-05-23T19:29:08.797Z,6.68
2023-05-23T19:30:42.445Z,5.00
2023-05-23T19:32:16.537Z,5.95
2023-05-23T19:33:50.137Z,6.45
2023-05-23T19:35:23.919Z,4.43
2023-05-23T19:36:57.839Z,5.30
2023-05-23T19:38:31.198Z,5.43
2023-05-23T19:40:05.341Z,5.45
2023-05-23T19:41:40.146Z,5.00
2023-05-23T19:43:13.429Z,4.75
2023-05-23T19:44:45.760Z,5.07
2023-05-23T19:46:19.209Z,3.22
2023-05-23T19:47:52.614Z,5.30
2023-05-23T19:49:26.140Z,3.72
2023-05-23T19:50:59.316Z,7.03
2023-05-23T19:52:32.579Z,5.90
2023-05-23T19:54:06.019Z,5.20
2023-05-23T19:55:39.797Z,5.07
2023-05-23T19:57:14.330Z,6.95
2023-05-23T19:58:47.521Z,5.45
2023-05-23T20:00:21.469Z,3.55
2023-05-23T20:01:54.686Z,6.57
2023-05-23T20:03:28.146Z,4.95
2023-05-23T20:05:01.386Z,3.92
2023-05-23T20:06:34.616Z,5.35
2023-05-23T20:08:07.982Z,4.05
2023-05-23T20:09:41.348Z,6.38
2023-05-23T20:11:14.528Z,7.15
2023-05-23T20:12:49.367Z,4.43
2023-05-23T20:15:55.773Z,2.50
2023-05-23T20:17:29.945Z,3.88
2023-05-23T20:19:03.235Z,3.72
2023-05-23T20:20:36.478Z,5.38
2023-05-23T20:22:09.651Z,6.78
2023-05-23T20:23:45.050Z,6.22
2023-05-23T20:25:18.639Z,2.88
2023-05-23T20:26:51.841Z,4.25
2023-05-23T20:28:27.310Z,8.10
2023-05-23T20:30:00.825Z,5.28
2023-05-23T20:31:34.050Z,4.78
2023-05-23T20:33:07.232Z,7.68
2023-05-23T20:34:41.839Z,2.53
2023-05-23T20:36:14.956Z,5.57
2023-05-23T20:37:48.180Z,4.32
2023-05-23T20:39:22.070Z,4.00
2023-05-23T20:40:55.408Z,6.15
2023-05-23T20:42:29.660Z,3.47
2023-05-23T20:44:04.177Z,5.70
2023-05-23T20:45:37.357Z,4.93
2023-05-23T20:47:13.081Z,4.68
2023-05-23T20:48:46.456Z,6.97
2023-05-23T20:50:21.900Z,4.75
2023-05-23T20:51:55.213Z,3.42
2023-05-23T20:53:28.561Z,3.88
2023-05-23T20:55:02.974Z,6.03
2023-05-23T20:56:36.305Z,6.25
2023-05-23T20:58:09.427Z,4.88
2023-05-23T20:59:44.209Z,2.90
2023-05-23T21:01:17.380Z,5.18
2023-05-23T21:02:50.788Z,4.35
2023-05-23T21:04:24.013Z,3.95
2023-05-23T21:05:57.211Z,5.63
2023-05-23T21:07:30.401Z,4.75
2023-05-23T21:09:03.774Z,4.43
2023-05-23T21:10:36.912Z,3.30
2023-05-23T21:12:09.131Z,5.15
2023-05-23T21:13:42.273Z,5.20
2023-05-23T21:15:17.055Z,3.40
2023-05-23T21:16:50.340Z,3.38
2023-05-23T21:18:23.552Z,5.43
2023-05-23T21:19:56.656Z,3.15
2023-05-23T21:21:29.057Z,3.33
2023-05-23T21:23:02.148Z,3.17
2023-05-23T21:24:35.311Z,4.32
2023-05-23T21:26:08.406Z,3.42
2023-05-23T21:27:42.372Z,6.03
2023-05-23T21:29:15.554Z,4.22
2023-05-23T21:30:50.286Z,3.22
2023-05-23T21:32:22.606Z,5.18
2023-05-23T21:33:55.850Z,4.25